Jicin, Czech Republic
Current Conditions -  °F | °C
As of 3:00 PM on Saturday 22 Nov 2014 (Local Time) from LKPD Reporting Station
Overcast Overcast  
Wind Chill: 39°   Ceiling: 2700
Heat Index: 43°   Visibility: 6mi
Dew Point: 32°   Wind: 6mph
Humidity: 66%   Direction: 150°SSE
Pressure: 30.27"   Gusts: NA
Location:  50.44°N, 15.35°E
Report Text: LKPD 221300Z 15005KT 100V200 9999 OVC027 06/00 Q1025 NOSIG
Loading
Personal Weather Stations






























Interactive Weather Map New forecast layout! Learn more

10-Day Weather Forecast

Advertisements
Track Severe Weather on mobile